Time;durP1;ratioP1;P1;durP2;ratioP2;P2;SDS_P1;SDS_P2;PMS_P1;PMS_P2;Temp;Humidity;BMP_temperature;BMP_pressure;BME280_temperature;BME280_humidity;BME280_pressure;Samples;Min_cycle;Max_cycle;Signal;HPM_P1;HPM_P2
2023/06/15 00:01:44;;;;;;;1.98;1.38;;;;;;;20.68;53.46;101953.13;6213665;28;20236;-73
2023/06/15 00:05:07;;;;;;;2.88;1.95;;;;;;;20.73;53.69;101955.34;6191990;28;20265;-73
2023/06/15 00:08:29;;;;;;;3.55;2.05;;;;;;;20.65;53.38;101956.22;6211310;28;20237;-73
2023/06/15 00:11:50;;;;;;;2.15;1.95;;;;;;;20.50;53.83;101957.13;6214500;28;20240;-74
2023/06/15 00:15:12;;;;;;;2.13;1.92;;;;;;;20.68;53.63;101960.50;6197585;28;20236;-73
2023/06/15 00:18:37;;;;;;;1.80;1.70;;;;;;;20.54;53.99;101961.22;6214317;28;20236;-73
2023/06/15 00:21:58;;;;;;;1.65;1.50;;;;;;;20.47;53.75;101962.94;6219522;28;20251;-74
2023/06/15 00:25:21;;;;;;;4.28;2.17;;;;;;;20.62;53.71;101963.94;6213179;28;20236;-73
2023/06/15 00:28:42;;;;;;;3.20;2.45;;;;;;;20.59;53.66;101964.28;6222949;28;20232;-73
2023/06/15 00:32:05;;;;;;;1.90;1.80;;;;;;;20.23;54.05;101957.50;6210899;28;20248;-73
2023/06/15 00:35:26;;;;;;;3.67;2.17;;;;;;;20.24;53.99;101957.31;6217339;28;20327;-73
2023/06/15 00:38:47;;;;;;;2.33;2.22;;;;;;;20.44;54.35;101958.66;6217452;28;20236;-73
2023/06/15 00:42:09;;;;;;;2.33;1.38;;;;;;;20.40;53.82;101954.56;6206640;28;20228;-73
2023/06/15 00:45:30;;;;;;;2.22;1.67;;;;;;;20.03;54.46;101956.09;6216375;28;20232;-74
2023/06/15 00:48:52;;;;;;;2.30;2.10;;;;;;;20.12;54.60;101952.34;6219656;28;20232;-73
2023/06/15 00:52:14;;;;;;;4.13;2.63;;;;;;;20.21;54.60;101960.41;6224086;28;20546;-73
2023/06/15 00:55:35;;;;;;;9.60;2.28;;;;;;;20.19;54.48;101958.84;6215008;28;20229;-74
2023/06/15 00:58:58;;;;;;;2.83;2.17;;;;;;;20.22;54.46;101961.25;6221197;28;20244;-74
2023/06/15 01:02:24;;;;;;;1.73;1.63;;;;;;;20.27;54.39;101962.47;6195732;28;20260;-74
2023/06/15 01:05:45;;;;;;;2.35;1.90;;;;;;;20.17;54.22;101967.22;6214344;28;20236;-74
2023/06/15 01:09:06;;;;;;;1.92;1.83;;;;;;;19.93;54.77;101962.59;6216196;28;20236;-74
2023/06/15 01:12:28;;;;;;;3.03;2.15;;;;;;;20.15;54.65;101963.78;6204560;28;21849;-73
2023/06/15 01:15:56;;;;;;;2.13;1.70;;;;;;;19.82;55.17;101965.66;6200506;28;20362;-73
2023/06/15 01:19:40;;;;;;;2.60;2.40;;;;;;;19.95;55.24;101956.94;6191349;28;20570;-73
2023/06/15 01:23:22;;;;;;;2.15;1.95;;;;;;;19.94;55.22;101958.81;6211941;28;20235;-73
2023/06/15 01:26:46;;;;;;;3.60;2.05;;;;;;;20.02;54.92;101958.00;6217771;28;20228;-74
2023/06/15 01:30:08;;;;;;;1.98;1.60;;;;;;;20.01;54.67;101958.13;6223866;28;20232;-74
2023/06/15 01:33:30;;;;;;;4.55;2.03;;;;;;;19.73;55.12;101961.19;6219451;28;20475;-74
2023/06/15 01:36:51;;;;;;;4.05;2.90;;;;;;;19.55;55.22;101960.50;6214999;28;20232;-74
2023/06/15 01:40:13;;;;;;;2.75;2.55;;;;;;;19.75;55.46;101961.06;6205240;28;20237;-74
2023/06/15 01:43:38;;;;;;;2.92;2.22;;;;;;;19.74;55.03;101962.94;6216158;28;20231;-74
2023/06/15 01:46:58;;;;;;;3.15;2.15;;;;;;;19.70;55.01;101958.81;6195626;28;20231;-73
2023/06/15 01:50:20;;;;;;;4.00;2.75;;;;;;;19.88;54.87;101953.19;6193343;28;20356;-75
2023/06/15 01:53:42;;;;;;;2.72;2.50;;;;;;;19.70;54.88;101950.59;6221602;28;21090;-73
2023/06/15 01:57:03;;;;;;;3.85;2.42;;;;;;;19.61;54.96;101950.78;6205567;28;20235;-73
2023/06/15 02:00:27;;;;;;;2.15;1.75;;;;;;;19.52;55.29;101947.16;6190670;28;20252;-74
2023/06/15 02:03:48;;;;;;;2.63;2.33;;;;;;;19.38;55.84;101947.78;6204077;28;20232;-74
2023/06/15 02:07:09;;;;;;;3.53;2.03;;;;;;;19.20;56.11;101943.44;6194173;28;20232;-73
2023/06/15 02:10:30;;;;;;;6.28;2.63;;;;;;;19.00;56.24;101949.16;6209151;28;20248;-73
2023/06/15 02:13:52;;;;;;;3.47;2.65;;;;;;;18.90;56.74;101947.63;6215418;28;20234;-73
2023/06/15 02:17:17;;;;;;;2.55;2.15;;;;;;;18.73;57.49;101941.19;6215533;28;20260;-74
2023/06/15 02:20:40;;;;;;;1.90;1.60;;;;;;;18.57;58.18;101946.56;6218282;28;20244;-74
2023/06/15 02:24:01;;;;;;;4.80;2.45;;;;;;;18.53;58.25;101938.84;6222023;28;20239;-74
2023/06/15 02:27:22;;;;;;;3.03;2.55;;;;;;;18.50;58.27;101942.78;6206582;28;20323;-74
2023/06/15 02:30:42;;;;;;;3.72;2.13;;;;;;;18.38;58.65;101943.19;6222717;28;20240;-74
2023/06/15 02:34:05;;;;;;;3.47;2.60;;;;;;;18.44;58.88;101950.78;6213712;28;20758;-73
2023/06/15 02:37:26;;;;;;;2.60;2.40;;;;;;;18.58;58.38;101948.28;6201847;28;20247;-72
2023/06/15 02:40:47;;;;;;;3.47;2.17;;;;;;;18.18;59.14;101956.16;6214916;28;22170;-74
2023/06/15 02:44:09;;;;;;;2.67;2.47;;;;;;;18.17;59.24;101955.31;6214353;28;20236;-73
2023/06/15 02:47:30;;;;;;;2.40;2.17;;;;;;;17.96;59.96;101956.69;6189663;28;20269;-73
2023/06/15 02:50:52;;;;;;;2.30;2.20;;;;;;;17.85;59.97;101949.59;6202745;28;20232;-74
2023/06/15 02:54:16;;;;;;;2.20;1.98;;;;;;;17.82;60.48;101954.50;6207679;28;20235;-74
2023/06/15 02:57:37;;;;;;;3.42;2.30;;;;;;;17.93;60.31;101952.41;6206536;28;20782;-71
2023/06/15 03:01:37;;;;;;;2.83;2.60;;;;;;;18.30;59.61;101957.63;6215382;28;20224;-74
2023/06/15 03:04:59;;;;;;;3.00;2.15;;;;;;;18.44;58.81;101954.34;6206939;28;20235;-73
2023/06/15 03:08:31;;;;;;;7.65;2.45;;;;;;;18.17;59.18;101954.44;6207839;28;20315;-73
2023/06/15 03:12:11;;;;;;;3.65;2.17;;;;;;;18.04;59.63;101956.75;6220743;28;20239;-74
2023/06/15 03:15:35;;;;;;;1.90;1.80;;;;;;;18.23;59.17;101956.56;6202818;28;20504;-73
2023/06/15 03:18:57;;;;;;;2.75;2.30;;;;;;;18.24;59.21;101955.53;6218687;28;20238;-71
2023/06/15 03:22:18;;;;;;;1.80;1.70;;;;;;;18.12;58.97;101951.34;6204446;28;20244;-74
2023/06/15 03:25:41;;;;;;;4.93;2.47;;;;;;;18.31;58.80;101954.72;6220570;28;20729;-72
2023/06/15 03:29:03;;;;;;;3.50;3.00;;;;;;;18.18;58.16;101948.84;6215248;28;20836;-74
2023/06/15 03:32:27;;;;;;;3.97;3.58;;;;;;;18.07;58.79;101957.28;6208924;28;20621;-73
2023/06/15 03:35:49;;;;;;;2.78;2.58;;;;;;;17.96;59.28;101948.50;6206559;28;20236;-73
2023/06/15 03:39:11;;;;;;;3.55;3.25;;;;;;;18.07;58.37;101953.69;6217463;28;21094;-74
2023/06/15 03:42:34;;;;;;;3.15;2.58;;;;;;;18.06;58.82;101952.84;6210200;28;20232;-73
2023/06/15 03:45:59;;;;;;;2.75;2.55;;;;;;;18.36;58.24;101957.84;6202989;28;20228;-72
2023/06/15 03:49:21;;;;;;;3.60;2.90;;;;;;;18.18;58.01;101954.31;6207782;28;20293;-74
2023/06/15 03:52:43;;;;;;;3.40;3.00;;;;;;;18.26;58.00;101954.38;6218754;28;20350;-73
2023/06/15 03:56:04;;;;;;;3.78;2.33;;;;;;;17.87;58.45;101950.28;6216886;28;20239;-74
2023/06/15 03:59:27;;;;;;;3.38;2.75;;;;;;;18.10;58.95;101951.53;6218715;28;20370;-73
2023/06/15 04:02:48;;;;;;;3.35;3.00;;;;;;;18.31;57.91;101953.88;6215354;28;20231;-73
2023/06/15 04:06:09;;;;;;;33.15;29.77;;;;;;;17.85;58.46;101954.19;6231316;28;21893;-73
2023/06/15 04:09:30;;;;;;;5.60;5.10;;;;;;;18.35;57.66;101956.16;6228025;28;20351;-72
2023/06/15 04:12:51;;;;;;;4.72;4.22;;;;;;;18.24;57.58;101958.25;6211307;28;20302;-73
2023/06/15 04:16:14;;;;;;;6.88;5.53;;;;;;;18.13;58.19;101950.31;6224776;28;20564;-71
2023/06/15 04:19:37;;;;;;;10.60;9.45;;;;;;;18.26;58.16;101957.09;6217009;28;20232;-73
2023/06/15 04:22:58;;;;;;;9.15;8.20;;;;;;;18.38;57.54;101949.47;6216960;28;20231;-74
2023/06/15 04:26:21;;;;;;;4.32;3.85;;;;;;;18.65;57.36;101952.06;6210412;28;20233;-73
2023/06/15 04:29:45;;;;;;;7.53;6.43;;;;;;;18.77;56.32;101948.06;6203220;28;20243;-72
2023/06/15 04:33:12;;;;;;;16.13;14.52;;;;;;;18.87;56.42;101947.94;6210147;28;20236;-73
2023/06/15 04:36:34;;;;;;;8.65;7.15;;;;;;;19.13;56.36;101946.84;6218764;28;20267;-74
2023/06/15 04:39:59;;;;;;;5.95;4.75;;;;;;;19.43;55.40;101953.63;6197316;28;20241;-73
2023/06/15 04:43:21;;;;;;;5.93;3.22;;;;;;;19.56;54.55;101954.00;6222230;28;20228;-74
2023/06/15 04:46:42;;;;;;;4.22;3.17;;;;;;;19.42;54.56;101953.81;6215884;28;20232;-74
2023/06/15 04:50:13;;;;;;;3.67;3.30;;;;;;;19.27;55.07;101956.31;6211091;28;20232;-74
2023/06/15 04:53:34;;;;;;;3.35;2.80;;;;;;;19.11;54.69;101948.03;6216260;28;20230;-75
2023/06/15 04:56:56;;;;;;;2.45;2.30;;;;;;;19.07;55.28;101952.97;6215573;28;20495;-74
2023/06/15 05:00:19;;;;;;;3.97;3.45;;;;;;;18.90;54.54;101950.34;6174845;28;20240;-73
2023/06/15 05:03:44;;;;;;;2.67;2.47;;;;;;;18.98;53.96;101951.22;6210505;28;20240;-73
2023/06/15 05:07:07;;;;;;;4.45;2.40;;;;;;;19.12;53.95;101947.00;6212593;28;20244;-74
2023/06/15 05:10:33;;;;;;;2.80;2.40;;;;;;;19.57;53.11;101946.63;6211775;28;20240;-74
2023/06/15 05:13:54;;;;;;;4.18;2.95;;;;;;;19.75;53.30;101950.09;6208621;28;20228;-73
2023/06/15 05:17:16;;;;;;;3.60;3.30;;;;;;;19.98;52.12;101945.69;6207261;28;20233;-74
2023/06/15 05:20:37;;;;;;;2.47;2.28;;;;;;;19.63;52.43;101937.78;6214002;28;20616;-74
2023/06/15 05:24:00;;;;;;;2.70;1.92;;;;;;;19.72;52.72;101951.28;6203153;28;20236;-74
2023/06/15 05:27:21;;;;;;;4.25;3.03;;;;;;;19.94;52.58;101952.53;6209379;28;20315;-72
2023/06/15 05:30:42;;;;;;;3.30;2.63;;;;;;;20.02;52.23;101944.31;6208998;28;20228;-73
2023/06/15 05:34:04;;;;;;;3.65;3.20;;;;;;;20.20;51.52;101944.13;6207771;28;20227;-76
2023/06/15 05:37:28;;;;;;;3.05;2.78;;;;;;;20.19;51.62;101948.75;6203750;28;20239;-79
2023/06/15 05:40:50;;;;;;;4.68;3.08;;;;;;;20.45;51.56;101943.09;6197808;28;20850;-74
2023/06/15 05:44:11;;;;;;;2.58;2.38;;;;;;;20.36;51.35;101947.72;6202485;28;20264;-74
2023/06/15 05:47:32;;;;;;;4.35;3.95;;;;;;;20.08;50.86;101948.22;6203054;28;20303;-74
2023/06/15 05:50:54;;;;;;;9.32;3.78;;;;;;;20.56;51.02;101945.47;6197308;28;20974;-74
2023/06/15 05:54:20;;;;;;;70.80;11.20;;;;;;;20.89;50.08;101941.59;6203837;28;21381;-74
2023/06/15 05:57:47;;;;;;;12.50;4.95;;;;;;;20.78;49.20;101943.88;6199482;28;20241;-79
2023/06/15 06:01:08;;;;;;;10.25;4.00;;;;;;;20.48;49.87;101940.88;6182573;28;20239;-76
2023/06/15 06:04:30;;;;;;;51.88;12.32;;;;;;;20.54;50.33;101950.25;6185984;28;20810;-76
2023/06/15 06:07:51;;;;;;;11.95;4.57;;;;;;;20.44;50.42;101955.91;6176584;28;20347;-72
2023/06/15 06:11:12;;;;;;;45.78;9.35;;;;;;;20.49;51.12;101947.19;6211703;28;20265;-77
2023/06/15 06:14:40;;;;;;;25.83;7.50;;;;;;;20.51;51.23;101948.72;6184286;28;20227;-86
2023/06/15 06:18:01;;;;;;;38.50;9.93;;;;;;;20.57;50.75;101942.53;6210467;28;20224;-77
2023/06/15 06:21:22;;;;;;;21.45;4.10;;;;;;;20.77;50.62;101942.16;6206029;28;20598;-85
2023/06/15 06:24:45;;;;;;;19.55;6.65;;;;;;;20.79;50.56;101938.19;6195209;28;20277;-81
2023/06/15 06:28:06;;;;;;;13.05;3.45;;;;;;;20.91;50.40;101944.16;6222420;28;20239;-80
2023/06/15 06:31:40;;;;;;;10.35;4.00;;;;;;;20.86;50.20;101941.09;6217309;28;20283;-80
2023/06/15 06:35:01;;;;;;;4.78;3.53;;;;;;;21.14;49.99;101942.38;6223333;28;20538;-76
2023/06/15 06:38:21;;;;;;;10.52;3.35;;;;;;;21.22;50.18;101940.44;6191841;28;20233;-74
2023/06/15 06:41:43;;;;;;;5.45;3.05;;;;;;;21.29;49.94;101935.09;6214973;28;21589;-79
2023/06/15 06:45:07;;;;;;;4.20;2.85;;;;;;;21.30;49.15;101936.78;6193617;28;20892;-77
2023/06/15 06:48:30;;;;;;;3.10;2.25;;;;;;;21.37;49.57;101940.53;6204830;28;20240;-79
2023/06/15 06:51:50;;;;;;;4.22;2.33;;;;;;;21.63;49.36;101938.31;6210587;28;20240;-78
2023/06/15 06:55:11;;;;;;;7.68;2.92;;;;;;;21.81;49.08;101927.88;6196191;28;20244;-82
2023/06/15 06:58:33;;;;;;;3.78;2.55;;;;;;;22.50;47.23;101934.13;6149160;28;20576;-83
2023/06/15 07:01:54;;;;;;;6.65;2.47;;;;;;;22.83;47.37;101932.75;6208398;28;21688;-72
2023/06/15 07:05:16;;;;;;;13.88;8.30;;;;;;;22.83;46.62;101921.75;6219927;28;20251;-75
2023/06/15 07:08:37;;;;;;;4.90;3.25;;;;;;;22.57;46.82;101927.69;6206022;28;20236;-82
2023/06/15 07:11:58;;;;;;;11.98;2.42;;;;;;;22.98;46.29;101931.72;6202110;28;20268;-78
2023/06/15 07:15:20;;;;;;;2.97;2.15;;;;;;;23.42;44.76;101922.53;6200224;28;20311;-76
2023/06/15 07:18:40;;;;;;;7.30;3.33;;;;;;;23.62;44.21;101918.09;6200671;28;20252;-79
2023/06/15 07:22:04;;;;;;;4.63;2.33;;;;;;;23.81;44.62;101920.22;6215451;28;20327;-82
2023/06/15 07:25:25;;;;;;;3.13;2.58;;;;;;;23.69;44.81;101922.66;6201446;28;20232;-75
2023/06/15 07:28:46;;;;;;;2.63;2.40;;;;;;;23.66;45.15;101925.78;6218989;28;20224;-78
2023/06/15 07:32:07;;;;;;;3.00;2.00;;;;;;;24.08;44.20;101924.94;6205483;28;20225;-73
2023/06/15 07:35:28;;;;;;;3.33;2.28;;;;;;;24.32;44.27;101930.00;6202655;28;20228;-73
2023/06/15 07:38:52;;;;;;;12.90;3.28;;;;;;;24.49;43.69;101930.59;6213272;28;20236;-73
2023/06/15 07:42:13;;;;;;;3.58;2.33;;;;;;;24.37;43.56;101929.41;6212125;28;20343;-72
2023/06/15 07:45:36;;;;;;;9.32;2.63;;;;;;;24.21;43.01;101922.31;6211687;28;20240;-73
2023/06/15 07:48:57;;;;;;;2.65;2.13;;;;;;;24.51;42.78;101926.53;6201004;28;20231;-80
2023/06/15 07:52:19;;;;;;;2.17;1.85;;;;;;;24.56;43.12;101928.72;6208356;28;20231;-77
2023/06/15 07:55:41;;;;;;;3.20;1.88;;;;;;;24.30;43.35;101929.34;6206106;28;20246;-76
2023/06/15 07:59:02;;;;;;;2.67;1.77;;;;;;;24.29;42.79;101933.19;6199455;28;20224;-74
2023/06/15 08:02:23;;;;;;;3.88;1.90;;;;;;;24.66;43.00;101923.66;6188925;28;20240;-76
2023/06/15 08:05:44;;;;;;;7.20;3.30;;;;;;;24.66;42.79;101926.44;6220699;28;20684;-75
2023/06/15 08:09:05;;;;;;;4.63;2.78;;;;;;;24.49;42.76;101919.56;6216483;28;20285;-73
2023/06/15 08:12:27;;;;;;;10.90;2.63;;;;;;;24.51;42.38;101917.44;6194445;28;20524;-76
2023/06/15 08:15:48;;;;;;;7.85;4.60;;;;;;;24.68;42.37;101913.28;6206812;28;20237;-76
2023/06/15 08:19:09;;;;;;;2.50;2.30;;;;;;;24.74;42.36;101917.19;6227267;28;20236;-75
2023/06/15 08:22:30;;;;;;;1.92;1.70;;;;;;;24.55;42.08;101913.22;6214481;28;20690;-77
2023/06/15 08:25:52;;;;;;;2.33;2.05;;;;;;;24.60;41.73;101917.06;6236611;28;20240;-75
2023/06/15 08:29:14;;;;;;;2.38;1.73;;;;;;;24.79;41.59;101907.25;6227575;28;20227;-76
2023/06/15 08:32:35;;;;;;;7.47;2.95;;;;;;;24.67;41.58;101913.50;6209098;28;20252;-75
2023/06/15 08:35:56;;;;;;;5.53;2.13;;;;;;;24.74;41.00;101908.91;6229908;28;20236;-76
2023/06/15 08:39:17;;;;;;;3.85;2.10;;;;;;;25.18;41.08;101921.22;6230756;28;20240;-76
2023/06/15 08:42:39;;;;;;;3.00;2.65;;;;;;;25.38;40.46;101916.66;6217020;28;20244;-75
2023/06/15 08:46:03;;;;;;;2.67;2.00;;;;;;;25.40;39.74;101910.91;6232649;28;20327;-76
2023/06/15 08:49:25;;;;;;;3.90;1.70;;;;;;;26.02;39.77;101918.91;6218601;28;20235;-77
2023/06/15 08:52:48;;;;;;;2.47;1.42;;;;;;;25.70;39.60;101911.44;6214348;28;20357;-75
2023/06/15 08:56:11;;;;;;;4.20;2.30;;;;;;;25.71;38.96;101918.66;6235307;28;20269;-76
2023/06/15 08:59:32;;;;;;;2.97;1.75;;;;;;;25.59;38.79;101912.03;6230674;28;20316;-76
2023/06/15 09:02:58;;;;;;;4.20;3.85;;;;;;;25.98;38.34;101921.25;6201402;28;20231;-76
2023/06/15 09:06:20;;;;;;;14.32;4.97;;;;;;;25.82;37.93;101913.38;6234884;28;20228;-77
2023/06/15 09:10:10;;;;;;;5.00;2.60;;;;;;;25.55;38.15;101921.81;6230798;28;20653;-75
2023/06/15 09:13:33;;;;;;;4.28;2.45;;;;;;;25.23;37.47;101918.72;6227977;28;20232;-76
2023/06/15 09:16:54;;;;;;;2.60;2.38;;;;;;;25.23;37.12;101920.59;6233128;28;20822;-76
2023/06/15 09:20:16;;;;;;;6.03;3.35;;;;;;;25.63;37.08;101925.25;6232040;28;20236;-76
2023/06/15 09:23:40;;;;;;;2.00;1.40;;;;;;;25.61;36.16;101927.34;6216622;28;20236;-75
2023/06/15 09:27:03;;;;;;;3.25;2.25;;;;;;;25.20;36.67;101930.16;6227786;28;20237;-75
2023/06/15 09:30:32;;;;;;;3.97;2.40;;;;;;;24.93;37.59;101936.59;6218667;28;20610;-75
2023/06/15 09:34:00;;;;;;;4.82;4.28;;;;;;;24.61;39.03;101929.78;6228110;28;20239;-75
2023/06/15 09:37:22;;;;;;;4.03;2.70;;;;;;;24.49;39.39;101934.16;6226125;28;20263;-76
2023/06/15 09:40:44;;;;;;;2.20;2.00;;;;;;;24.33;39.46;101928.09;6218063;28;20228;-77
2023/06/15 09:44:06;;;;;;;5.28;2.22;;;;;;;24.41;40.99;101925.19;6213933;28;20232;-74
2023/06/15 09:47:29;;;;;;;2.35;1.77;;;;;;;24.44;41.03;101922.06;6198430;28;20315;-73
2023/06/15 09:50:51;;;;;;;4.35;1.75;;;;;;;24.52;40.00;101921.88;6194028;28;20240;-79
2023/06/15 09:54:14;;;;;;;2.53;1.50;;;;;;;24.55;40.31;101922.34;6224987;28;20799;-75
2023/06/15 09:57:36;;;;;;;3.50;1.88;;;;;;;25.48;40.23;101909.88;6213403;28;20358;-72
2023/06/15 10:01:03;;;;;;;3.20;2.30;;;;;;;26.37;38.83;101916.81;6229296;28;20610;-74
2023/06/15 10:04:27;;;;;;;1.63;1.52;;;;;;;26.80;37.94;101905.06;6222404;28;20231;-75
2023/06/15 10:07:48;;;;;;;2.35;2.15;;;;;;;27.32;38.06;101903.97;6219618;28;20240;-73
2023/06/15 10:11:11;;;;;;;2.00;1.65;;;;;;;27.49;36.35;101896.91;6235848;28;20618;-77
2023/06/15 10:14:36;;;;;;;2.95;2.25;;;;;;;27.09;37.19;101903.66;6228377;28;20243;-72
2023/06/15 10:18:01;;;;;;;3.80;2.45;;;;;;;27.63;36.09;101911.50;6220306;28;20228;-74
2023/06/15 10:21:26;;;;;;;3.95;2.67;;;;;;;27.38;34.03;101902.28;6234514;28;20240;-76
2023/06/15 10:24:47;;;;;;;5.35;3.10;;;;;;;27.17;34.38;101903.41;6225745;28;20228;-73
2023/06/15 10:28:11;;;;;;;2.47;2.28;;;;;;;27.35;34.21;101895.25;6216467;28;20231;-74
2023/06/15 10:31:40;;;;;;;3.45;2.45;;;;;;;26.96;34.70;101897.31;6228022;28;20248;-75
2023/06/15 10:35:09;;;;;;;2.58;2.38;;;;;;;26.39;35.83;101906.38;6228232;28;20228;-76
2023/06/15 10:38:38;;;;;;;2.13;1.85;;;;;;;25.75;36.36;101898.69;6217021;28;20302;-75
2023/06/15 10:42:00;;;;;;;3.20;1.92;;;;;;;25.52;37.51;101894.59;6225230;28;20650;-74
2023/06/15 10:45:31;;;;;;;1.95;1.83;;;;;;;25.03;37.71;101905.88;6200612;28;20232;-74
2023/06/15 10:48:54;;;;;;;2.78;1.65;;;;;;;24.94;38.65;101898.81;6214776;28;20219;-76
2023/06/15 10:52:14;;;;;;;3.03;2.20;;;;;;;25.10;38.29;101891.03;6225397;28;20315;-76
2023/06/15 10:55:35;;;;;;;2.53;1.85;;;;;;;25.23;37.14;101890.25;6192566;28;20315;-75
2023/06/15 10:58:58;;;;;;;3.30;1.85;;;;;;;25.42;37.50;101888.63;6222326;28;20351;-76
2023/06/15 11:02:58;;;;;;;2.25;2.05;;;;;;;26.12;36.42;101886.19;6218532;28;20240;-73
2023/06/15 11:06:21;;;;;;;2.53;1.98;;;;;;;26.43;35.41;101891.88;6223801;28;20642;-73
2023/06/15 11:09:43;;;;;;;4.57;2.47;;;;;;;26.41;35.83;101887.66;6228384;28;20321;-70
2023/06/15 11:13:05;;;;;;;2.72;1.77;;;;;;;26.55;36.41;101878.25;6204880;28;20351;-71
2023/06/15 11:16:29;;;;;;;3.33;2.35;;;;;;;25.97;36.51;101889.13;6211860;28;20236;-76
2023/06/15 11:19:52;;;;;;;1.95;1.83;;;;;;;25.58;37.12;101896.50;6214880;28;20225;-74
2023/06/15 11:23:16;;;;;;;2.22;2.03;;;;;;;25.76;37.47;101886.59;6206000;28;20235;-75
2023/06/15 11:26:40;;;;;;;4.25;2.85;;;;;;;25.93;37.93;101876.78;6199337;28;20235;-78
2023/06/15 11:30:01;;;;;;;2.45;2.08;;;;;;;26.12;37.90;101875.97;6231825;28;20351;-76
2023/06/15 11:33:29;;;;;;;1.52;1.42;;;;;;;26.55;38.10;101868.06;6216853;28;20231;-75
2023/06/15 11:36:51;;;;;;;3.90;2.50;;;;;;;26.52;38.13;101868.47;6221980;28;20260;-73
2023/06/15 11:40:16;;;;;;;3.58;1.95;;;;;;;26.75;38.67;101855.03;6217281;28;20252;-73
2023/06/15 11:43:40;;;;;;;3.72;2.30;;;;;;;26.57;39.20;101854.84;6224155;28;20228;-75
2023/06/15 11:47:02;;;;;;;2.92;2.30;;;;;;;27.12;38.98;101849.75;6216630;28;20236;-73
2023/06/15 11:50:23;;;;;;;7.13;1.88;;;;;;;26.81;38.79;101858.81;6203195;28;20232;-73
2023/06/15 11:53:46;;;;;;;8.13;2.50;;;;;;;27.55;38.15;101851.66;6206845;28;20247;-74
2023/06/15 11:57:07;;;;;;;3.28;1.92;;;;;;;27.77;37.87;101854.03;6219896;28;20232;-76
2023/06/15 12:00:28;;;;;;;2.35;2.00;;;;;;;27.91;37.86;101830.69;6214093;28;20224;-76
2023/06/15 12:03:51;;;;;;;2.72;2.50;;;;;;;28.08;38.46;101835.44;6216328;28;20251;-85
2023/06/15 12:07:12;;;;;;;5.35;2.97;;;;;;;28.45;37.50;101845.53;6202649;28;20225;-78
2023/06/15 12:10:37;;;;;;;2.15;1.95;;;;;;;29.06;36.66;101842.69;6203559;28;20240;-75
2023/06/15 12:14:00;;;;;;;3.10;2.17;;;;;;;28.59;36.98;101825.97;6206557;28;20237;-72
2023/06/15 12:17:27;;;;;;;4.68;2.78;;;;;;;28.44;37.36;101827.19;6223272;28;20236;-76
2023/06/15 12:20:48;;;;;;;3.35;2.42;;;;;;;27.50;38.55;101829.31;6225709;28;20323;-73
2023/06/15 12:24:13;;;;;;;3.22;2.35;;;;;;;27.56;38.17;101828.41;6213350;28;20240;-73
2023/06/15 12:27:41;;;;;;;3.30;2.33;;;;;;;27.74;37.90;101824.00;6218578;28;20346;-72
2023/06/15 12:31:05;;;;;;;3.95;2.58;;;;;;;28.23;38.42;101824.00;6227886;28;20224;-77
2023/06/15 12:34:29;;;;;;;4.80;2.65;;;;;;;28.18;37.96;101816.34;6207058;28;20228;-75
2023/06/15 12:37:50;;;;;;;3.70;3.40;;;;;;;28.52;37.42;101812.16;6230671;28;20235;-75
2023/06/15 12:41:13;;;;;;;4.57;2.17;;;;;;;29.26;36.92;101814.66;6227836;28;20225;-80
2023/06/15 12:44:35;;;;;;;2.47;2.28;;;;;;;29.44;36.02;101802.63;6198977;28;20232;-77
2023/06/15 12:47:57;;;;;;;3.25;2.20;;;;;;;29.13;35.82;101814.81;6205560;28;20648;-77
2023/06/15 12:51:18;;;;;;;4.20;2.45;;;;;;;29.89;33.50;101798.28;6223900;28;20224;-75
2023/06/15 12:54:39;;;;;;;3.28;2.90;;;;;;;28.77;33.77;101793.50;6221221;28;20240;-73
2023/06/15 12:58:00;;;;;;;3.63;2.17;;;;;;;28.81;33.62;101791.97;6209788;28;20618;-73
2023/06/15 13:01:22;;;;;;;3.05;2.08;;;;;;;28.59;33.16;101790.75;6215366;28;20232;-77
2023/06/15 13:04:43;;;;;;;2.55;2.35;;;;;;;28.15;33.17;101788.25;6219903;28;20240;-81
2023/06/15 13:08:06;;;;;;;3.38;2.70;;;;;;;27.72;33.94;101787.34;6231571;28;20236;-85
2023/06/15 13:11:27;;;;;;;3.20;2.90;;;;;;;27.86;34.06;101787.00;6218650;28;20237;-78
2023/06/15 13:14:48;;;;;;;3.40;3.10;;;;;;;28.30;34.54;101772.94;6208139;28;20363;-79
2023/06/15 13:18:13;;;;;;;6.90;2.70;;;;;;;28.04;34.49;101777.91;6216759;28;20228;-75
2023/06/15 13:21:34;;;;;;;1.98;1.88;;;;;;;27.56;35.48;101781.28;6231254;28;20236;-77
2023/06/15 13:24:55;;;;;;;3.88;2.67;;;;;;;26.63;36.13;101776.50;6231337;28;21673;-78
2023/06/15 13:28:17;;;;;;;2.88;2.40;;;;;;;26.98;36.57;101788.06;6222994;28;20251;-76
2023/06/15 13:31:37;;;;;;;3.60;2.58;;;;;;;27.03;36.31;101781.88;6221005;28;20240;-79
2023/06/15 13:34:59;;;;;;;2.25;1.90;;;;;;;26.64;36.96;101777.38;6214221;28;20232;-83
2023/06/15 13:38:20;;;;;;;3.65;2.53;;;;;;;26.20;37.97;101777.28;6216000;28;22133;-72
2023/06/15 13:41:43;;;;;;;7.53;2.17;;;;;;;28.21;35.88;101765.13;6222962;28;20233;-75
2023/06/15 13:45:07;;;;;;;2.35;2.00;;;;;;;31.41;33.23;101762.34;6209840;28;20236;-73
2023/06/15 13:48:29;;;;;;;3.45;2.72;;;;;;;32.67;30.88;101763.44;6206837;28;20383;-75
2023/06/15 13:51:51;;;;;;;3.22;2.78;;;;;;;32.77;30.61;101757.97;6211898;28;20523;-73
2023/06/15 13:55:16;;;;;;;4.68;2.47;;;;;;;31.94;31.07;101761.00;6222016;28;20331;-79
2023/06/15 13:58:37;;;;;;;3.22;2.40;;;;;;;29.70;33.46;101752.16;6217867;28;20319;-76
2023/06/15 14:01:57;;;;;;;3.33;2.38;;;;;;;30.84;32.96;101743.91;6224659;28;20229;-73
2023/06/15 14:05:18;;;;;;;3.00;2.78;;;;;;;29.99;34.47;101745.66;6217555;28;20281;-75
2023/06/15 14:08:41;;;;;;;3.08;2.40;;;;;;;31.00;33.93;101739.50;6228377;28;21124;-76
2023/06/15 14:12:02;;;;;;;3.40;3.10;;;;;;;29.57;35.25;101736.53;6222077;28;20603;-74
2023/06/15 14:15:25;;;;;;;5.40;2.88;;;;;;;28.37;36.45;101728.47;6204032;28;20327;-87
2023/06/15 14:18:46;;;;;;;4.10;3.67;;;;;;;27.70;38.30;101732.97;6214573;28;20224;-75
2023/06/15 14:22:08;;;;;;;3.28;2.42;;;;;;;27.29;38.66;101720.75;6211747;28;20228;-78
2023/06/15 14:25:31;;;;;;;3.78;3.15;;;;;;;27.08;39.49;101713.66;6220104;28;20224;-77
2023/06/15 14:28:51;;;;;;;5.22;2.80;;;;;;;26.80;40.20;101719.63;6230415;28;20240;-75
2023/06/15 14:32:14;;;;;;;2.50;2.30;;;;;;;26.88;40.63;101710.19;6215874;28;20339;-77
2023/06/15 14:35:35;;;;;;;2.75;2.55;;;;;;;26.72;41.13;101719.84;6211020;28;20240;-77
2023/06/15 14:38:56;;;;;;;2.72;2.30;;;;;;;26.47;41.44;101709.75;6232742;28;20231;-76
2023/06/15 14:42:20;;;;;;;2.88;2.67;;;;;;;26.33;41.65;101716.38;6234079;28;20244;-76
2023/06/15 14:45:41;;;;;;;2.83;2.63;;;;;;;26.13;42.21;101708.19;6218760;28;20558;-78
2023/06/15 14:49:03;;;;;;;6.75;3.28;;;;;;;26.02;42.36;101719.88;6233438;28;20605;-78
2023/06/15 14:52:26;;;;;;;5.03;4.63;;;;;;;26.31;42.12;101713.00;6214886;28;20232;-79
2023/06/15 14:55:46;;;;;;;4.45;2.65;;;;;;;26.45;41.80;101707.19;6234406;28;20590;-78
2023/06/15 14:59:09;;;;;;;3.25;2.35;;;;;;;26.49;41.83;101716.78;6227613;28;20240;-78
2023/06/15 15:02:30;;;;;;;3.45;2.75;;;;;;;26.53;41.41;101704.19;6212913;28;20224;-79
2023/06/15 15:05:51;;;;;;;3.30;2.17;;;;;;;26.45;42.36;101706.38;6237219;28;21432;-73
2023/06/15 15:09:12;;;;;;;2.67;2.47;;;;;;;26.58;41.52;101714.56;6222099;28;20231;-72
2023/06/15 15:12:33;;;;;;;3.55;2.63;;;;;;;26.69;42.13;101709.22;6216481;28;20240;-72
2023/06/15 15:15:56;;;;;;;2.28;2.08;;;;;;;26.85;41.58;101702.31;6234051;28;20342;-71
2023/06/15 15:19:17;;;;;;;2.25;2.08;;;;;;;26.72;42.45;101714.31;6226674;28;20228;-73
2023/06/15 15:22:39;;;;;;;2.97;2.10;;;;;;;26.42;42.24;101712.31;6216769;28;20531;-73
2023/06/15 15:26:00;;;;;;;5.22;3.15;;;;;;;26.66;42.82;101717.13;6222037;28;20245;-72
2023/06/15 15:29:21;;;;;;;3.90;2.95;;;;;;;27.62;41.10;101715.78;6221687;28;20583;-73
2023/06/15 15:32:43;;;;;;;3.30;2.83;;;;;;;27.99;40.55;101711.19;6215854;28;20756;-72
2023/06/15 15:36:05;;;;;;;4.15;2.58;;;;;;;28.19;40.47;101700.72;6236032;28;20236;-71
2023/06/15 15:39:27;;;;;;;3.67;3.05;;;;;;;28.02;40.41;101711.56;6222270;28;20826;-74
2023/06/15 15:42:47;;;;;;;3.08;2.53;;;;;;;27.93;41.60;101704.63;6203486;28;20350;-72